createdAt,value
2022-08-20T00:02:14.668Z,6.15
2022-08-20T00:04:42.644Z,6.10
2022-08-20T00:07:10.330Z,6.65
2022-08-20T00:09:38.127Z,6.00
2022-08-20T00:12:08.389Z,6.40
2022-08-20T00:14:38.033Z,6.50
2022-08-20T00:17:07.180Z,6.32
2022-08-20T00:19:34.942Z,6.22
2022-08-20T00:22:03.743Z,6.47
2022-08-20T00:24:31.459Z,6.38
2022-08-20T00:26:59.081Z,6.40
2022-08-20T00:29:26.836Z,6.25
2022-08-20T00:31:54.440Z,5.85
2022-08-20T00:34:22.181Z,5.50
2022-08-20T00:36:49.761Z,6.68
2022-08-20T00:39:17.419Z,6.10
2022-08-20T00:41:46.009Z,5.63
2022-08-20T00:44:18.007Z,5.90
2022-08-20T00:46:47.036Z,5.45
2022-08-20T00:49:19.234Z,5.40
2022-08-20T00:51:54.676Z,5.50
2022-08-20T00:54:34.072Z,5.45
2022-08-20T00:57:07.789Z,5.03
2022-08-20T00:59:40.054Z,5.10
2022-08-20T01:02:15.266Z,6.53
2022-08-20T01:04:55.697Z,5.28
2022-08-20T01:07:36.218Z,5.28
2022-08-20T01:10:13.215Z,5.20
2022-08-20T01:12:44.531Z,5.53
2022-08-20T01:15:17.946Z,5.68
2022-08-20T01:17:52.945Z,6.07
2022-08-20T01:20:26.175Z,5.78
2022-08-20T01:23:21.825Z,5.30
2022-08-20T01:25:57.448Z,5.28
2022-08-20T01:28:30.152Z,5.35
2022-08-20T01:30:58.053Z,5.82
2022-08-20T01:33:26.257Z,5.63
2022-08-20T01:35:54.887Z,6.22
2022-08-20T01:38:23.020Z,5.57
2022-08-20T01:41:15.326Z,6.80
2022-08-20T01:43:45.917Z,5.68
2022-08-20T01:46:17.040Z,6.40
2022-08-20T01:48:47.527Z,5.90
2022-08-20T01:51:23.820Z,6.13
2022-08-20T01:53:54.053Z,5.90
2022-08-20T01:56:25.875Z,6.18
2022-08-20T01:58:58.928Z,6.40
2022-08-20T02:01:34.623Z,6.90
2022-08-20T02:04:17.152Z,6.45
2022-08-20T02:06:57.125Z,6.65
2022-08-20T02:09:32.523Z,6.75
2022-08-20T02:12:01.248Z,6.28
2022-08-20T02:14:29.773Z,6.20
2022-08-20T02:17:00.783Z,7.10
2022-08-20T02:19:50.996Z,6.40
2022-08-20T02:22:33.704Z,6.43
2022-08-20T02:25:01.776Z,6.10
2022-08-20T02:27:31.227Z,6.32
2022-08-20T02:30:00.949Z,6.40
2022-08-20T02:32:34.140Z,6.78
2022-08-20T02:35:08.632Z,6.70
2022-08-20T02:37:37.913Z,7.10
2022-08-20T02:40:08.171Z,6.07
2022-08-20T02:42:36.708Z,7.30
2022-08-20T02:45:06.306Z,7.13
2022-08-20T02:47:35.052Z,6.00
2022-08-20T02:50:03.707Z,6.60
2022-08-20T02:52:35.635Z,6.75
2022-08-20T02:55:03.852Z,6.40
2022-08-20T02:57:32.626Z,6.68
2022-08-20T03:00:01.614Z,6.88
2022-08-20T03:02:29.935Z,6.85
2022-08-20T03:04:57.517Z,7.00
2022-08-20T03:07:25.562Z,6.57
2022-08-20T03:09:53.626Z,6.60
2022-08-20T03:12:21.459Z,6.72
2022-08-20T03:14:50.050Z,7.47
2022-08-20T03:17:17.830Z,6.15
2022-08-20T03:19:45.484Z,6.40
2022-08-20T03:22:13.173Z,6.55
2022-08-20T03:24:40.809Z,6.70
2022-08-20T03:27:09.297Z,7.10
2022-08-20T03:29:39.752Z,6.60
2022-08-20T03:32:07.906Z,6.13
2022-08-20T03:34:36.463Z,7.00
2022-08-20T03:37:04.524Z,6.20
2022-08-20T03:39:32.437Z,6.80
2022-08-20T03:42:00.150Z,6.35
2022-08-20T03:44:27.968Z,6.50
2022-08-20T03:46:55.619Z,7.05
2022-08-20T03:49:24.428Z,6.47
2022-08-20T03:51:58.292Z,6.45
2022-08-20T03:54:30.222Z,6.45
2022-08-20T03:57:01.243Z,7.20
2022-08-20T03:59:33.151Z,6.75
2022-08-20T04:02:01.528Z,6.82
2022-08-20T04:04:29.277Z,6.10
2022-08-20T04:06:57.367Z,6.18
2022-08-20T04:09:24.969Z,6.53
2022-08-20T04:12:00.344Z,6.57
2022-08-20T04:14:28.311Z,6.30
2022-08-20T04:16:57.072Z,6.60
2022-08-20T04:19:24.752Z,6.15
2022-08-20T04:21:52.762Z,5.70
2022-08-20T04:24:31.127Z,7.43
2022-08-20T04:27:05.091Z,6.28
2022-08-20T04:29:35.282Z,5.90
2022-08-20T04:32:06.123Z,6.38
2022-08-20T04:34:34.589Z,6.00
2022-08-20T04:37:02.755Z,5.95
2022-08-20T04:39:30.758Z,5.80
2022-08-20T04:41:58.949Z,6.10
2022-08-20T04:44:27.556Z,6.60
2022-08-20T04:46:55.356Z,7.32
2022-08-20T04:49:25.173Z,6.35
2022-08-20T04:51:54.748Z,7.00
2022-08-20T04:56:50.066Z,5.80
2022-08-20T04:59:17.692Z,6.75
2022-08-20T05:01:45.715Z,6.90
2022-08-20T05:04:13.764Z,6.20
2022-08-20T05:06:41.822Z,6.25
2022-08-20T05:09:09.515Z,5.88
2022-08-20T05:11:37.236Z,8.35
2022-08-20T05:14:08.764Z,7.40
2022-08-20T05:16:41.435Z,7.68
2022-08-20T05:19:13.295Z,7.32
2022-08-20T05:21:41.745Z,6.72
2022-08-20T05:24:12.295Z,7.68
2022-08-20T05:26:40.857Z,7.43
2022-08-20T05:29:08.619Z,7.13
2022-08-20T05:31:37.628Z,6.80
2022-08-20T05:34:10.712Z,8.23
2022-08-20T05:36:41.976Z,10.00
2022-08-20T05:39:10.584Z,10.32
2022-08-20T05:41:39.818Z,6.95
2022-08-20T05:44:13.744Z,8.00
2022-08-20T05:46:44.365Z,7.18
2022-08-20T05:49:17.148Z,8.23
2022-08-20T05:51:45.053Z,7.18
2022-08-20T05:54:14.046Z,7.82
2022-08-20T05:56:42.092Z,8.35
2022-08-20T05:59:10.792Z,7.07
2022-08-20T06:01:40.715Z,7.47
2022-08-20T06:04:25.356Z,7.20
2022-08-20T06:06:55.666Z,7.45
2022-08-20T06:09:30.952Z,7.57
2022-08-20T06:12:04.797Z,6.65
2022-08-20T06:14:33.788Z,7.82
2022-08-20T06:17:13.334Z,8.50
2022-08-20T06:19:44.174Z,8.40
2022-08-20T06:22:18.862Z,7.18
2022-08-20T06:24:54.268Z,7.35
2022-08-20T06:27:23.030Z,7.50
2022-08-20T06:29:51.335Z,7.88
2022-08-20T06:32:31.867Z,6.85
2022-08-20T06:35:02.327Z,8.02
2022-08-20T06:37:33.177Z,12.38
2022-08-20T06:40:06.333Z,9.50
2022-08-20T06:42:34.470Z,8.65
2022-08-20T06:45:05.075Z,9.13
2022-08-20T06:47:34.191Z,9.30
2022-08-20T06:50:01.838Z,8.75
2022-08-20T06:52:52.107Z,9.93
2022-08-20T06:55:17.892Z,9.32
2022-08-20T06:57:45.597Z,11.77
2022-08-20T07:00:17.345Z,8.88
2022-08-20T07:02:47.139Z,8.35
2022-08-20T07:05:16.448Z,8.60
2022-08-20T07:07:51.198Z,8.60
2022-08-20T07:10:20.743Z,10.75
2022-08-20T07:12:50.176Z,9.50
2022-08-20T07:15:20.697Z,10.25
2022-08-20T07:17:57.528Z,9.75
2022-08-20T07:22:56.356Z,7.97
2022-08-20T07:25:25.061Z,8.85
2022-08-20T07:27:52.755Z,8.90
2022-08-20T07:30:57.094Z,8.60
2022-08-20T07:33:28.201Z,8.60
2022-08-20T07:35:58.416Z,8.60
2022-08-20T07:38:29.434Z,17.92
2022-08-20T07:41:00.704Z,9.77
2022-08-20T07:43:29.253Z,8.73
2022-08-20T07:46:00.894Z,10.63
2022-08-20T07:48:32.441Z,9.27
2022-08-20T07:51:04.399Z,9.35
2022-08-20T07:53:36.227Z,7.85
2022-08-20T07:56:11.408Z,8.23
2022-08-20T07:58:43.347Z,7.95
2022-08-20T08:01:12.078Z,8.77
2022-08-20T08:03:49.131Z,8.50
2022-08-20T08:06:28.706Z,9.45
2022-08-20T08:09:06.434Z,7.50
2022-08-20T08:11:38.065Z,8.23
2022-08-20T08:14:08.904Z,7.97
2022-08-20T08:16:39.977Z,7.32
2022-08-20T08:19:12.071Z,8.15
2022-08-20T08:21:40.216Z,8.65
2022-08-20T08:24:08.072Z,10.52
2022-08-20T08:26:35.727Z,9.88
2022-08-20T08:29:05.407Z,9.23
2022-08-20T08:31:33.821Z,8.85
2022-08-20T08:34:01.663Z,9.18
2022-08-20T08:36:29.464Z,19.20
2022-08-20T08:38:57.135Z,8.20
2022-08-20T08:41:36.661Z,8.13
2022-08-20T08:44:04.868Z,9.10
2022-08-20T08:46:38.498Z,8.15
2022-08-20T08:49:06.959Z,7.90
2022-08-20T08:52:08.779Z,9.30
2022-08-20T08:54:39.545Z,8.50
2022-08-20T08:57:10.087Z,8.52
2022-08-20T08:59:52.509Z,8.07
2022-08-20T09:02:28.984Z,8.95
2022-08-20T09:05:02.830Z,14.23
2022-08-20T09:07:33.617Z,8.77
2022-08-20T09:10:01.697Z,8.82
2022-08-20T09:12:29.840Z,9.17
2022-08-20T09:14:57.643Z,8.48
2022-08-20T09:17:25.826Z,7.60
2022-08-20T09:19:53.533Z,7.68
2022-08-20T09:22:25.617Z,7.60
2022-08-20T09:24:53.661Z,7.20
2022-08-20T09:27:21.403Z,6.95
2022-08-20T09:29:50.335Z,5.85
2022-08-20T09:32:21.753Z,7.32
2022-08-20T09:34:56.083Z,6.45
2022-08-20T09:37:27.059Z,7.57
2022-08-20T09:39:55.483Z,6.55
2022-08-20T09:42:30.932Z,7.40
2022-08-20T09:44:59.616Z,6.72
2022-08-20T09:47:27.662Z,6.57
2022-08-20T09:49:55.353Z,6.03
2022-08-20T09:52:40.679Z,7.57
2022-08-20T09:55:24.833Z,8.43
2022-08-20T09:57:53.353Z,6.95
2022-08-20T10:00:21.440Z,7.63
2022-08-20T10:02:49.073Z,6.90
2022-08-20T10:05:16.835Z,7.40
2022-08-20T10:07:46.276Z,6.97
2022-08-20T10:10:15.903Z,7.18
2022-08-20T10:12:43.679Z,7.53
2022-08-20T10:15:11.940Z,7.40
2022-08-20T10:17:41.166Z,8.13
2022-08-20T10:20:11.410Z,7.38
2022-08-20T10:22:39.374Z,7.25
2022-08-20T10:25:07.830Z,7.97
2022-08-20T10:27:37.077Z,7.60
2022-08-20T10:30:06.516Z,7.32
2022-08-20T10:32:34.403Z,7.60
2022-08-20T10:35:02.122Z,6.95
2022-08-20T10:37:30.164Z,7.32
2022-08-20T10:40:01.488Z,8.32
2022-08-20T10:42:29.587Z,7.57
2022-08-20T10:44:57.226Z,7.30
2022-08-20T10:47:26.557Z,7.18
2022-08-20T10:49:57.205Z,7.13
2022-08-20T10:52:26.099Z,8.30
2022-08-20T10:54:54.322Z,7.72
2022-08-20T10:57:30.487Z,7.82
2022-08-20T10:59:59.394Z,7.40
2022-08-20T11:02:28.536Z,7.20
2022-08-20T11:04:56.488Z,7.28
2022-08-20T11:07:54.763Z,6.93
2022-08-20T11:10:22.714Z,6.78
2022-08-20T11:12:50.943Z,7.25
2022-08-20T11:15:18.792Z,7.70
2022-08-20T11:17:46.681Z,7.18
2022-08-20T11:20:16.915Z,6.85
2022-08-20T11:22:44.758Z,6.32
2022-08-20T11:25:13.006Z,6.93
2022-08-20T11:27:44.446Z,6.25
2022-08-20T11:30:30.898Z,6.40
2022-08-20T11:33:00.351Z,5.97
2022-08-20T11:35:49.122Z,6.13
2022-08-20T11:38:19.250Z,5.95
2022-08-20T11:43:16.624Z,6.38
2022-08-20T11:45:47.133Z,7.00
2022-08-20T11:48:15.380Z,6.75
2022-08-20T11:50:42.959Z,6.05
2022-08-20T11:53:10.695Z,6.05
2022-08-20T11:55:39.966Z,6.53
2022-08-20T11:58:08.062Z,6.13
2022-08-20T12:00:37.225Z,6.30
2022-08-20T12:03:10.161Z,6.03
2022-08-20T12:05:44.197Z,6.03
2022-08-20T12:08:26.834Z,6.82
2022-08-20T12:11:00.269Z,6.10
2022-08-20T12:13:47.777Z,6.45
2022-08-20T12:16:20.323Z,5.85
2022-08-20T12:18:48.848Z,5.63
2022-08-20T12:21:17.381Z,6.50
2022-08-20T12:23:45.234Z,6.18
2022-08-20T12:26:13.363Z,7.53
2022-08-20T12:28:41.434Z,8.40
2022-08-20T12:31:09.254Z,7.55
2022-08-20T12:33:37.070Z,6.82
2022-08-20T12:36:04.837Z,9.68
2022-08-20T12:38:33.039Z,13.55
2022-08-20T12:41:01.359Z,10.50
2022-08-20T12:43:29.107Z,10.70
2022-08-20T12:45:56.866Z,8.18
2022-08-20T12:48:24.716Z,9.50
2022-08-20T12:50:52.891Z,15.88
2022-08-20T12:53:20.634Z,18.40
2022-08-20T12:55:48.457Z,9.45
2022-08-20T12:58:16.053Z,6.88
2022-08-20T13:00:50.294Z,8.13
2022-08-20T13:03:20.958Z,6.70
2022-08-20T13:05:51.927Z,6.30
2022-08-20T13:08:19.812Z,7.28
2022-08-20T13:10:48.257Z,7.77
2022-08-20T13:13:20.567Z,6.38
2022-08-20T13:15:51.167Z,6.05
2022-08-20T13:18:19.599Z,6.00
2022-08-20T13:20:48.127Z,5.17
2022-08-20T13:23:16.788Z,4.20
2022-08-20T13:25:44.589Z,4.10
2022-08-20T13:28:12.271Z,4.07
2022-08-20T13:30:41.462Z,4.45
2022-08-20T13:35:37.528Z,5.25
2022-08-20T13:38:05.207Z,5.40
2022-08-20T13:40:34.838Z,6.63
2022-08-20T13:43:06.782Z,5.45
2022-08-20T13:45:36.575Z,5.90
2022-08-20T13:48:05.337Z,4.55
2022-08-20T13:50:35.988Z,4.88
2022-08-20T13:53:04.408Z,4.90
2022-08-20T13:55:39.106Z,5.45
2022-08-20T13:58:08.281Z,4.82
2022-08-20T14:00:36.870Z,4.68
2022-08-20T14:03:06.189Z,4.97
2022-08-20T14:05:34.781Z,5.32
2022-08-20T14:08:17.233Z,4.72
2022-08-20T14:10:50.373Z,5.57
2022-08-20T14:13:22.577Z,7.97
2022-08-20T14:15:51.312Z,5.70
2022-08-20T14:18:20.065Z,5.40
2022-08-20T14:20:48.001Z,5.50
2022-08-20T14:23:16.499Z,5.17
2022-08-20T14:25:49.551Z,5.50
2022-08-20T14:28:23.895Z,5.30
2022-08-20T14:30:53.082Z,6.10
2022-08-20T14:33:22.615Z,6.43
2022-08-20T14:35:50.984Z,6.18
2022-08-20T14:38:19.353Z,6.03
2022-08-20T14:40:47.439Z,6.70
2022-08-20T14:43:15.048Z,5.97
2022-08-20T14:45:42.734Z,7.13
2022-08-20T14:48:10.364Z,6.03
2022-08-20T14:50:38.385Z,7.03
2022-08-20T14:53:07.447Z,6.10
2022-08-20T14:55:37.668Z,4.97
2022-08-20T14:58:12.922Z,6.65
2022-08-20T15:00:41.706Z,5.15
2022-08-20T15:03:09.610Z,5.50
2022-08-20T15:05:39.638Z,6.32
2022-08-20T15:08:09.027Z,5.25
2022-08-20T15:10:39.349Z,5.10
2022-08-20T15:15:37.404Z,4.75
2022-08-20T15:18:05.442Z,5.10
2022-08-20T15:20:35.171Z,4.25
2022-08-20T15:25:36.573Z,4.75
2022-08-20T15:28:08.806Z,5.18
2022-08-20T15:30:39.210Z,5.45
2022-08-20T15:33:07.828Z,5.18
2022-08-20T15:35:36.048Z,5.10
2022-08-20T15:38:03.843Z,5.53
2022-08-20T15:40:32.923Z,4.80
2022-08-20T15:43:03.487Z,5.45
2022-08-20T15:45:32.706Z,5.13
2022-08-20T15:48:21.956Z,4.53
2022-08-20T15:51:11.973Z,6.28
2022-08-20T15:53:54.708Z,4.88
2022-08-20T15:56:37.497Z,4.95
2022-08-20T15:59:32.659Z,5.05
2022-08-20T16:02:09.771Z,5.15
2022-08-20T16:04:53.247Z,4.50
2022-08-20T16:07:31.988Z,5.47
2022-08-20T16:10:02.651Z,5.93
2022-08-20T16:12:37.092Z,6.20
2022-08-20T16:15:25.483Z,5.85
2022-08-20T16:18:05.650Z,5.00
2022-08-20T16:20:40.186Z,4.70
2022-08-20T16:23:08.873Z,4.90
2022-08-20T16:25:46.600Z,4.83
2022-08-20T16:28:25.429Z,5.38
2022-08-20T16:31:02.151Z,5.47
2022-08-20T16:33:37.103Z,4.43
2022-08-20T16:36:33.507Z,4.57
2022-08-20T16:39:04.945Z,4.57
2022-08-20T16:41:40.729Z,5.30
2022-08-20T16:44:32.830Z,4.88
2022-08-20T16:47:25.335Z,4.97
2022-08-20T16:50:02.353Z,5.85
2022-08-20T16:52:30.659Z,5.97
2022-08-20T16:54:59.043Z,5.30
2022-08-20T16:57:28.893Z,6.10
2022-08-20T17:00:16.582Z,5.22
2022-08-20T17:02:51.208Z,5.35
2022-08-20T17:05:19.882Z,5.15
2022-08-20T17:08:07.201Z,5.18
2022-08-20T17:10:52.425Z,5.57
2022-08-20T17:13:28.243Z,5.30
2022-08-20T17:16:03.268Z,6.40
2022-08-20T17:18:40.792Z,6.68
2022-08-20T17:21:23.366Z,6.78
2022-08-20T17:23:58.209Z,6.18
2022-08-20T17:26:44.067Z,6.43
2022-08-20T17:29:24.094Z,6.63
2022-08-20T17:32:09.460Z,7.10
2022-08-20T17:34:57.281Z,5.50
2022-08-20T17:37:33.418Z,6.90
2022-08-20T17:40:26.321Z,5.38
2022-08-20T17:43:01.597Z,5.30
2022-08-20T17:45:44.593Z,5.93
2022-08-20T17:48:37.946Z,5.72
2022-08-20T17:51:30.530Z,5.88
2022-08-20T17:54:07.694Z,6.25
2022-08-20T17:56:40.248Z,4.47
2022-08-20T17:59:33.564Z,4.82
2022-08-20T18:02:06.174Z,5.05
2022-08-20T18:04:34.546Z,4.18
2022-08-20T18:07:11.338Z,4.65
2022-08-20T18:09:55.661Z,4.35
2022-08-20T18:12:41.365Z,5.68
2022-08-20T18:15:24.282Z,4.47
2022-08-20T18:18:09.588Z,3.60
2022-08-20T18:20:49.154Z,4.03
2022-08-20T18:23:23.649Z,4.53
2022-08-20T18:26:09.911Z,5.07
2022-08-20T18:28:51.120Z,4.35
2022-08-20T18:31:50.796Z,4.40
2022-08-20T18:34:41.126Z,3.85
2022-08-20T18:37:14.765Z,4.85
2022-08-20T18:39:48.170Z,4.60
2022-08-20T18:42:36.656Z,4.40
2022-08-20T18:45:06.043Z,4.55
2022-08-20T18:47:33.770Z,4.22
2022-08-20T18:50:16.671Z,4.05
2022-08-20T18:53:07.277Z,5.07
2022-08-20T18:55:37.168Z,4.78
2022-08-20T18:58:11.511Z,4.07
2022-08-20T19:00:48.568Z,3.70
2022-08-20T19:03:31.315Z,4.75
2022-08-20T19:06:11.017Z,4.07
2022-08-20T19:09:00.150Z,4.50
2022-08-20T19:11:49.260Z,5.22
2022-08-20T19:14:22.354Z,4.70
2022-08-20T19:16:58.779Z,4.30
2022-08-20T19:19:30.813Z,6.65
2022-08-20T19:22:02.502Z,4.07
2022-08-20T19:24:35.579Z,4.50
2022-08-20T19:27:07.613Z,4.43
2022-08-20T19:29:39.491Z,4.75
2022-08-20T19:32:09.665Z,3.70
2022-08-20T19:34:38.233Z,4.50
2022-08-20T19:37:31.592Z,4.13
2022-08-20T19:40:08.601Z,4.18
2022-08-20T19:42:43.002Z,5.45
2022-08-20T19:45:24.004Z,4.28
2022-08-20T19:48:27.092Z,6.82
2022-08-20T19:51:04.528Z,4.20
2022-08-20T19:53:35.201Z,3.83
2022-08-20T19:56:11.082Z,4.72
2022-08-20T19:58:39.839Z,4.90
2022-08-20T20:01:19.533Z,5.25
2022-08-20T20:03:57.574Z,3.88
2022-08-20T20:06:27.460Z,4.47
2022-08-20T20:09:02.188Z,4.22
2022-08-20T20:11:35.295Z,4.10
2022-08-20T20:14:09.434Z,5.38
2022-08-20T20:16:40.468Z,4.47
2022-08-20T20:19:26.417Z,4.50
2022-08-20T20:22:26.520Z,4.25
2022-08-20T20:25:13.936Z,3.92
2022-08-20T20:27:49.807Z,5.35
2022-08-20T20:30:26.076Z,6.00
2022-08-20T20:32:55.136Z,4.30
2022-08-20T20:35:32.513Z,4.28
2022-08-20T20:38:09.445Z,5.03
2022-08-20T20:40:47.851Z,4.05
2022-08-20T20:43:30.445Z,4.03
2022-08-20T20:46:12.405Z,4.53
2022-08-20T20:48:48.605Z,5.05
2022-08-20T20:51:29.025Z,4.65
2022-08-20T20:54:03.496Z,4.80
2022-08-20T20:56:34.561Z,5.35
2022-08-20T20:59:06.592Z,4.60
2022-08-20T21:01:49.863Z,4.50
2022-08-20T21:04:23.547Z,4.25
2022-08-20T21:06:54.537Z,4.38
2022-08-20T21:09:23.920Z,4.53
2022-08-20T21:11:52.187Z,3.75
2022-08-20T21:14:20.177Z,4.35
2022-08-20T21:16:48.589Z,4.45
2022-08-20T21:19:17.731Z,4.47
2022-08-20T21:21:45.377Z,4.47
2022-08-20T21:24:13.226Z,3.85
2022-08-20T21:26:41.333Z,4.20
2022-08-20T21:29:11.398Z,5.72
2022-08-20T21:31:44.177Z,4.35
2022-08-20T21:34:13.383Z,3.60
2022-08-20T21:36:41.468Z,4.15
2022-08-20T21:39:09.671Z,3.67
2022-08-20T21:41:37.672Z,4.47
2022-08-20T21:44:29.851Z,4.00
2022-08-20T21:46:58.307Z,3.55
2022-08-20T21:49:28.435Z,3.75
2022-08-20T21:51:56.269Z,4.03
2022-08-20T21:54:25.121Z,3.25
2022-08-20T21:57:20.684Z,4.72
2022-08-20T21:59:49.610Z,3.55
2022-08-20T22:02:18.801Z,3.88
2022-08-20T22:04:46.609Z,21.55
2022-08-20T22:07:15.802Z,4.75
2022-08-20T22:09:43.915Z,3.75
2022-08-20T22:12:24.710Z,3.90
2022-08-20T22:14:53.203Z,3.40
2022-08-20T22:17:21.127Z,4.22
2022-08-20T22:19:48.960Z,4.35
2022-08-20T22:22:17.537Z,4.47
2022-08-20T22:24:46.397Z,4.13
2022-08-20T22:27:14.900Z,4.47
2022-08-20T22:29:42.699Z,4.65
2022-08-20T22:32:10.421Z,4.25
2022-08-20T22:34:40.225Z,4.45
2022-08-20T22:37:08.243Z,4.40
2022-08-20T22:39:36.875Z,4.23
2022-08-20T22:42:04.814Z,4.10
2022-08-20T22:44:33.524Z,4.72
2022-08-20T22:47:07.520Z,4.47
2022-08-20T22:49:39.872Z,4.70
2022-08-20T22:52:09.322Z,3.35
2022-08-20T22:54:38.159Z,3.53
2022-08-20T22:57:13.479Z,4.28
2022-08-20T22:59:46.424Z,4.03
2022-08-20T23:02:21.930Z,3.80
2022-08-20T23:04:49.704Z,3.88
2022-08-20T23:07:19.873Z,4.60
2022-08-20T23:09:47.714Z,3.85
2022-08-20T23:12:15.496Z,3.90
2022-08-20T23:14:43.153Z,4.10
2022-08-20T23:17:14.366Z,4.18
2022-08-20T23:19:42.840Z,3.95
2022-08-20T23:22:11.467Z,3.60
2022-08-20T23:24:39.565Z,3.78
2022-08-20T23:27:10.427Z,6.78
2022-08-20T23:29:38.152Z,4.20
2022-08-20T23:32:05.947Z,4.07
2022-08-20T23:34:33.930Z,3.42
2022-08-20T23:37:02.550Z,3.90
2022-08-20T23:39:31.465Z,3.88
2022-08-20T23:41:59.796Z,4.00
2022-08-20T23:44:28.272Z,3.95
2022-08-20T23:46:58.591Z,4.07
2022-08-20T23:49:27.732Z,4.43
2022-08-20T23:51:55.653Z,3.50
2022-08-20T23:54:23.345Z,4.18
2022-08-20T23:56:51.073Z,3.90
2022-08-20T23:59:18.664Z,3.58
